createdAt,value
2023-05-22T00:02:11.106Z,21.80
2023-05-22T00:04:40.056Z,21.05
2023-05-22T00:07:07.792Z,21.23
2023-05-22T00:09:35.428Z,21.33
2023-05-22T00:12:03.058Z,20.45
2023-05-22T00:14:30.669Z,19.83
2023-05-22T00:17:00.213Z,20.67
2023-05-22T00:19:30.459Z,21.13
2023-05-22T00:21:58.245Z,20.75
2023-05-22T00:24:25.936Z,21.42
2023-05-22T00:26:53.517Z,21.65
2023-05-22T00:29:21.135Z,20.95
2023-05-22T00:31:48.766Z,20.58
2023-05-22T00:34:17.764Z,21.30
2023-05-22T00:36:45.495Z,21.30
2023-05-22T00:39:13.134Z,21.88
2023-05-22T00:41:40.758Z,20.80
2023-05-22T00:44:08.404Z,20.50
2023-05-22T00:46:36.424Z,21.92
2023-05-22T00:49:04.198Z,21.63
2023-05-22T00:51:33.145Z,21.98
2023-05-22T00:54:00.928Z,20.08
2023-05-22T00:56:28.999Z,20.98
2023-05-22T00:58:56.673Z,21.58
2023-05-22T01:01:26.346Z,20.95
2023-05-22T01:03:55.660Z,21.70
2023-05-22T01:06:23.417Z,22.05
2023-05-22T01:08:52.371Z,22.15
2023-05-22T01:11:23.181Z,20.13
2023-05-22T01:13:56.198Z,21.30
2023-05-22T01:16:29.832Z,20.15
2023-05-22T01:19:02.802Z,20.55
2023-05-22T01:21:35.535Z,20.05
2023-05-22T01:24:21.828Z,20.63
2023-05-22T01:27:17.581Z,20.15
2023-05-22T01:29:48.330Z,20.70
2023-05-22T01:32:18.500Z,18.77
2023-05-22T01:34:47.697Z,20.50
2023-05-22T01:37:16.349Z,21.15
2023-05-22T01:39:44.457Z,19.85
2023-05-22T01:42:12.123Z,20.08
2023-05-22T01:44:39.766Z,21.15
2023-05-22T01:47:08.347Z,19.08
2023-05-22T01:49:37.673Z,20.23
2023-05-22T01:52:12.209Z,19.95
2023-05-22T01:54:45.415Z,20.58
2023-05-22T01:57:17.856Z,19.27
2023-05-22T01:59:48.491Z,19.92
2023-05-22T02:02:18.353Z,21.33
2023-05-22T02:04:50.669Z,20.00
2023-05-22T02:07:20.654Z,21.35
2023-05-22T02:09:48.958Z,20.35
2023-05-22T02:12:16.987Z,20.10
2023-05-22T02:14:45.045Z,20.23
2023-05-22T02:17:12.784Z,20.58
2023-05-22T02:19:40.562Z,20.80
2023-05-22T02:22:13.572Z,20.58
2023-05-22T02:24:42.097Z,20.40
2023-05-22T02:27:10.590Z,19.77
2023-05-22T02:29:38.342Z,19.90
2023-05-22T02:32:06.782Z,20.27
2023-05-22T02:34:34.974Z,20.95
2023-05-22T02:37:04.082Z,21.67
2023-05-22T02:39:33.071Z,20.17
2023-05-22T02:42:00.788Z,21.02
2023-05-22T02:44:28.445Z,20.90
2023-05-22T02:46:56.183Z,20.67
2023-05-22T02:49:23.899Z,20.33
2023-05-22T02:51:51.529Z,20.13
2023-05-22T02:54:19.158Z,20.65
2023-05-22T02:56:48.139Z,18.90
2023-05-22T02:59:16.498Z,19.58
2023-05-22T03:01:44.402Z,20.40
2023-05-22T03:04:12.941Z,19.45
2023-05-22T03:06:40.759Z,19.63
2023-05-22T03:09:08.745Z,19.42
2023-05-22T03:11:36.390Z,20.10
2023-05-22T03:14:05.375Z,19.27
2023-05-22T03:16:34.421Z,20.75
2023-05-22T03:19:09.326Z,20.13
2023-05-22T03:21:37.392Z,20.58
2023-05-22T03:24:05.271Z,19.73
2023-05-22T03:26:32.859Z,19.90
2023-05-22T03:29:00.515Z,20.40
2023-05-22T03:31:31.382Z,21.35
2023-05-22T03:33:59.051Z,18.92
2023-05-22T03:36:26.731Z,20.92
2023-05-22T03:38:54.499Z,19.08
2023-05-22T03:41:22.322Z,19.88
2023-05-22T03:43:49.973Z,20.83
2023-05-22T03:46:17.811Z,19.42
2023-05-22T03:48:46.831Z,20.10
2023-05-22T03:51:14.420Z,19.30
2023-05-22T03:53:42.027Z,20.00
2023-05-22T03:56:09.621Z,19.50
2023-05-22T03:58:37.223Z,20.80
2023-05-22T04:01:05.187Z,21.73
2023-05-22T04:03:32.816Z,20.90
2023-05-22T04:06:01.807Z,20.48
2023-05-22T04:08:30.581Z,20.00
2023-05-22T04:10:58.182Z,20.95
2023-05-22T04:13:25.800Z,20.92
2023-05-22T04:15:53.649Z,21.17
2023-05-22T04:18:21.346Z,20.50
2023-05-22T04:20:51.763Z,20.75
2023-05-22T04:23:21.453Z,21.33
2023-05-22T04:25:49.036Z,20.63
2023-05-22T04:28:18.181Z,20.92
2023-05-22T04:30:46.019Z,21.52
2023-05-22T04:33:13.782Z,21.35
2023-05-22T04:35:42.359Z,20.23
2023-05-22T04:38:10.578Z,20.70
2023-05-22T04:40:39.923Z,20.20
2023-05-22T04:43:07.796Z,20.50
2023-05-22T04:45:35.530Z,20.50
2023-05-22T04:48:03.568Z,20.73
2023-05-22T04:50:32.422Z,20.65
2023-05-22T04:53:00.746Z,21.40
2023-05-22T04:55:28.372Z,20.85
2023-05-22T04:57:57.419Z,19.65
2023-05-22T05:00:26.554Z,20.05
2023-05-22T05:02:54.378Z,20.30
2023-05-22T05:05:22.149Z,20.25
2023-05-22T05:07:50.773Z,20.13
2023-05-22T05:10:18.564Z,19.42
2023-05-22T05:12:46.433Z,19.88
2023-05-22T05:15:15.421Z,20.50
2023-05-22T05:17:43.262Z,21.13
2023-05-22T05:20:14.389Z,19.45
2023-05-22T05:22:43.971Z,21.00
2023-05-22T05:25:11.945Z,19.35
2023-05-22T05:27:39.942Z,19.92
2023-05-22T05:30:08.826Z,20.20
2023-05-22T05:32:37.866Z,20.13
2023-05-22T05:35:06.343Z,21.25
2023-05-22T05:37:33.953Z,20.15
2023-05-22T05:40:01.529Z,20.35
2023-05-22T05:42:29.131Z,20.52
2023-05-22T05:44:56.700Z,20.08
2023-05-22T05:47:24.895Z,20.52
2023-05-22T05:49:53.847Z,20.02
2023-05-22T05:52:21.483Z,20.45
2023-05-22T05:54:49.388Z,19.08
2023-05-22T05:57:17.258Z,19.55
2023-05-22T05:59:44.850Z,19.02
2023-05-22T06:02:12.810Z,17.70
2023-05-22T06:04:40.399Z,19.00
2023-05-22T06:07:09.381Z,19.23
2023-05-22T06:09:37.073Z,18.20
2023-05-22T06:12:05.154Z,19.50
2023-05-22T06:14:33.369Z,18.30
2023-05-22T06:17:01.041Z,19.67
2023-05-22T06:19:28.730Z,18.25
2023-05-22T06:21:56.540Z,19.08
2023-05-22T06:24:25.520Z,19.55
2023-05-22T06:26:53.194Z,19.58
2023-05-22T06:29:21.209Z,18.83
2023-05-22T06:31:48.842Z,18.08
2023-05-22T06:34:16.495Z,18.10
2023-05-22T06:36:45.980Z,18.95
2023-05-22T06:39:13.654Z,18.40
2023-05-22T06:41:42.580Z,19.40
2023-05-22T06:44:10.353Z,18.35
2023-05-22T06:46:38.060Z,17.30
2023-05-22T06:49:06.146Z,18.10
2023-05-22T06:51:34.167Z,18.55
2023-05-22T06:54:03.593Z,17.05
2023-05-22T06:56:31.899Z,18.02
2023-05-22T06:59:00.846Z,18.27
2023-05-22T07:01:29.343Z,18.27
2023-05-22T07:03:58.724Z,17.75
2023-05-22T07:06:26.363Z,18.27
2023-05-22T07:08:54.342Z,17.15
2023-05-22T07:11:22.379Z,17.42
2023-05-22T07:13:50.011Z,17.10
2023-05-22T07:16:19.060Z,18.77
2023-05-22T07:18:47.004Z,17.25
2023-05-22T07:21:14.692Z,18.23
2023-05-22T07:23:42.323Z,17.70
2023-05-22T07:26:10.863Z,17.95
2023-05-22T07:28:38.811Z,18.20
2023-05-22T07:31:06.584Z,17.85
2023-05-22T07:33:35.702Z,17.48
2023-05-22T07:36:03.374Z,17.70
2023-05-22T07:38:32.012Z,17.73
2023-05-22T07:40:59.627Z,18.27
2023-05-22T07:43:27.214Z,18.63
2023-05-22T07:45:55.020Z,17.85
2023-05-22T07:48:22.662Z,17.77
2023-05-22T07:50:51.639Z,17.45
2023-05-22T07:53:19.217Z,18.10
2023-05-22T07:55:46.800Z,17.45
2023-05-22T07:58:14.682Z,18.25
2023-05-22T08:00:42.734Z,19.42
2023-05-22T08:03:10.394Z,17.50
2023-05-22T08:05:38.055Z,18.25
2023-05-22T08:08:07.114Z,18.33
2023-05-22T08:10:52.215Z,18.55
2023-05-22T08:13:20.349Z,19.15
2023-05-22T08:15:47.965Z,18.52
2023-05-22T08:18:15.637Z,18.58
2023-05-22T08:20:43.243Z,19.67
2023-05-22T08:23:12.137Z,19.88
2023-05-22T08:25:39.689Z,19.17
2023-05-22T08:28:07.358Z,18.73
2023-05-22T08:30:35.879Z,17.85
2023-05-22T08:33:03.622Z,18.25
2023-05-22T08:35:31.328Z,19.17
2023-05-22T08:37:58.838Z,18.30
2023-05-22T08:40:35.617Z,19.05
2023-05-22T08:43:03.236Z,18.88
2023-05-22T08:45:34.092Z,19.00
2023-05-22T08:48:06.009Z,18.17
2023-05-22T08:50:34.770Z,19.40
2023-05-22T08:53:03.211Z,19.50
2023-05-22T08:55:32.195Z,18.13
2023-05-22T08:58:00.661Z,19.83
2023-05-22T09:00:29.692Z,18.80
2023-05-22T09:02:57.624Z,20.83
2023-05-22T09:05:26.819Z,19.25
2023-05-22T09:07:56.521Z,19.02
2023-05-22T09:10:26.592Z,17.88
2023-05-22T09:13:05.669Z,19.13
2023-05-22T09:15:33.852Z,18.80
2023-05-22T09:18:01.909Z,19.30
2023-05-22T09:20:29.498Z,18.70
2023-05-22T09:22:57.168Z,19.05
2023-05-22T09:25:26.459Z,19.25
2023-05-22T09:27:54.267Z,18.02
2023-05-22T09:30:23.288Z,19.38
2023-05-22T09:32:51.104Z,20.15
2023-05-22T09:35:20.107Z,18.73
2023-05-22T09:37:47.837Z,18.85
2023-05-22T09:40:15.682Z,19.17
2023-05-22T09:42:45.899Z,21.65
2023-05-22T09:45:13.861Z,19.67
2023-05-22T09:47:43.268Z,20.98
2023-05-22T09:50:11.869Z,21.63
2023-05-22T09:52:39.719Z,19.60
2023-05-22T09:55:09.029Z,20.42
2023-05-22T09:57:43.379Z,19.73
2023-05-22T10:00:15.751Z,21.05
2023-05-22T10:02:46.964Z,20.20
2023-05-22T10:05:21.409Z,19.80
2023-05-22T10:07:51.736Z,19.35
2023-05-22T10:10:21.599Z,20.42
2023-05-22T10:12:53.884Z,21.30
2023-05-22T10:15:22.270Z,22.00
2023-05-22T10:17:51.680Z,21.63
2023-05-22T10:20:20.337Z,21.40
2023-05-22T10:22:48.899Z,21.17
2023-05-22T10:25:18.258Z,20.98
2023-05-22T10:27:46.640Z,20.40
2023-05-22T10:30:24.182Z,21.80
2023-05-22T10:32:59.081Z,21.00
2023-05-22T10:35:32.702Z,20.77
2023-05-22T10:38:15.003Z,21.35
2023-05-22T10:40:42.765Z,22.85
2023-05-22T10:43:10.629Z,22.92
2023-05-22T10:45:38.320Z,23.05
2023-05-22T10:48:08.878Z,21.00
2023-05-22T10:50:37.214Z,22.10
2023-05-22T10:53:24.707Z,22.42
2023-05-22T10:55:53.462Z,22.02
2023-05-22T10:58:27.143Z,21.20
2023-05-22T11:01:09.681Z,23.67
2023-05-22T11:03:58.444Z,23.45
2023-05-22T11:06:37.397Z,20.70
2023-05-22T11:09:29.199Z,22.35
2023-05-22T11:12:16.969Z,22.42
2023-05-22T11:14:48.648Z,21.88
2023-05-22T11:17:18.859Z,22.02
2023-05-22T11:19:58.648Z,23.17
2023-05-22T11:22:31.886Z,21.90
2023-05-22T11:24:59.536Z,22.85
2023-05-22T11:27:27.674Z,23.73
2023-05-22T11:29:56.009Z,22.83
2023-05-22T11:32:24.419Z,23.13
2023-05-22T11:34:54.030Z,21.85
2023-05-22T11:37:21.698Z,22.10
2023-05-22T11:39:53.152Z,22.60
2023-05-22T11:42:21.138Z,21.70
2023-05-22T11:44:48.789Z,22.10
2023-05-22T11:47:16.483Z,22.77
2023-05-22T11:49:44.389Z,21.67
2023-05-22T11:52:13.285Z,23.27
2023-05-22T11:54:40.883Z,22.20
2023-05-22T11:57:09.674Z,22.10
2023-05-22T11:59:37.227Z,21.73
2023-05-22T12:02:04.877Z,21.33
2023-05-22T12:04:33.644Z,20.90
2023-05-22T12:07:01.320Z,21.52
2023-05-22T12:09:30.259Z,21.65
2023-05-22T12:11:58.053Z,20.75
2023-05-22T12:14:27.166Z,21.67
2023-05-22T12:16:54.895Z,22.73
2023-05-22T12:19:22.651Z,21.88
2023-05-22T12:21:50.819Z,22.42
2023-05-22T12:24:23.155Z,21.50
2023-05-22T12:26:52.345Z,22.08
2023-05-22T12:29:20.001Z,22.00
2023-05-22T12:31:47.646Z,22.08
2023-05-22T12:34:17.120Z,21.75
2023-05-22T12:36:45.619Z,20.98
2023-05-22T12:39:18.947Z,21.38
2023-05-22T12:41:46.966Z,21.15
2023-05-22T12:44:16.960Z,21.48
2023-05-22T12:46:44.648Z,19.98
2023-05-22T12:49:12.375Z,19.73
2023-05-22T12:51:40.054Z,19.88
2023-05-22T12:54:07.652Z,19.75
2023-05-22T12:56:35.237Z,19.67
2023-05-22T12:59:03.947Z,19.70
2023-05-22T13:01:32.996Z,20.90
2023-05-22T13:04:00.765Z,21.00
2023-05-22T13:06:30.290Z,19.90
2023-05-22T13:09:00.856Z,19.63
2023-05-22T13:11:28.706Z,20.25
2023-05-22T13:13:56.394Z,19.85
2023-05-22T13:16:24.039Z,20.45
2023-05-22T13:18:53.098Z,19.60
2023-05-22T13:21:20.788Z,19.83
2023-05-22T13:23:48.509Z,20.17
2023-05-22T13:26:16.302Z,19.50
2023-05-22T13:28:43.974Z,21.60
2023-05-22T13:31:11.672Z,20.27
2023-05-22T13:33:39.358Z,21.02
2023-05-22T13:36:08.747Z,20.02
2023-05-22T13:38:36.933Z,21.05
2023-05-22T13:41:04.736Z,20.88
2023-05-22T13:43:32.456Z,21.13
2023-05-22T13:46:00.179Z,21.02
2023-05-22T13:48:27.902Z,20.35
2023-05-22T13:50:55.657Z,19.63
2023-05-22T13:53:24.752Z,18.75
2023-05-22T13:55:52.434Z,19.08
2023-05-22T13:58:20.137Z,20.08
2023-05-22T14:00:47.925Z,19.45
2023-05-22T14:03:17.699Z,21.73
2023-05-22T14:05:45.637Z,21.63
2023-05-22T14:08:13.674Z,22.10
2023-05-22T14:10:42.961Z,21.63
2023-05-22T14:13:10.643Z,21.45
2023-05-22T14:15:38.693Z,21.95
2023-05-22T14:18:06.552Z,21.55
2023-05-22T14:20:34.296Z,22.02
2023-05-22T14:23:01.906Z,20.75
2023-05-22T14:25:29.593Z,21.33
2023-05-22T14:27:58.609Z,21.25
2023-05-22T14:30:26.295Z,21.30
2023-05-22T14:32:54.090Z,22.10
2023-05-22T14:35:22.092Z,20.75
2023-05-22T14:37:49.996Z,20.70
2023-05-22T14:40:17.903Z,21.92
2023-05-22T14:42:45.751Z,20.88
2023-05-22T14:45:14.892Z,20.88
2023-05-22T14:47:43.326Z,21.30
2023-05-22T14:50:18.861Z,20.42
2023-05-22T14:52:47.749Z,19.58
2023-05-22T14:55:15.476Z,18.55
2023-05-22T14:57:43.120Z,19.70
2023-05-22T15:00:12.213Z,18.65
2023-05-22T15:02:41.518Z,18.45
2023-05-22T15:05:10.216Z,19.38
2023-05-22T15:10:10.250Z,18.90
2023-05-22T15:12:37.898Z,19.23
2023-05-22T15:15:06.208Z,19.08
2023-05-22T15:17:33.883Z,19.48
2023-05-22T15:20:04.264Z,18.92
2023-05-22T15:22:31.929Z,19.58
2023-05-22T15:25:06.323Z,17.98
2023-05-22T15:27:34.610Z,19.00
2023-05-22T15:30:02.342Z,18.65
2023-05-22T15:32:30.716Z,19.10
2023-05-22T15:34:58.492Z,19.42
2023-05-22T15:37:29.185Z,19.55
2023-05-22T15:39:58.511Z,18.92
2023-05-22T15:42:26.183Z,19.25
2023-05-22T15:44:53.846Z,19.83
2023-05-22T15:47:21.519Z,19.42
2023-05-22T15:49:49.173Z,18.13
2023-05-22T15:52:16.824Z,19.13
2023-05-22T15:54:45.964Z,19.50
2023-05-22T15:57:13.607Z,19.25
2023-05-22T15:59:41.246Z,19.70
2023-05-22T16:02:09.037Z,18.65
2023-05-22T16:04:36.701Z,18.88
2023-05-22T16:07:04.393Z,17.95
2023-05-22T16:09:32.842Z,18.35
2023-05-22T16:12:02.002Z,19.13
2023-05-22T16:14:29.644Z,18.40
2023-05-22T16:16:57.805Z,18.52
2023-05-22T16:19:25.554Z,19.13
2023-05-22T16:21:53.188Z,18.45
2023-05-22T16:24:20.804Z,18.50
2023-05-22T16:26:48.412Z,20.00
2023-05-22T16:29:20.428Z,18.95
2023-05-22T16:31:48.282Z,21.17
2023-05-22T16:34:15.937Z,19.60
2023-05-22T16:36:43.641Z,20.63
2023-05-22T16:39:11.295Z,22.90
2023-05-22T16:41:39.018Z,21.80
2023-05-22T16:44:06.631Z,22.35
2023-05-22T16:46:37.308Z,19.83
2023-05-22T16:49:07.348Z,22.10
2023-05-22T16:51:34.942Z,23.52
2023-05-22T16:54:02.548Z,18.92
2023-05-22T16:56:30.120Z,21.25
2023-05-22T16:58:57.724Z,19.00
2023-05-22T17:01:25.466Z,19.65
2023-05-22T17:03:55.198Z,18.98
2023-05-22T17:06:22.812Z,20.65
2023-05-22T17:08:50.711Z,19.35
2023-05-22T17:11:18.443Z,20.00
2023-05-22T17:13:46.079Z,20.55
2023-05-22T17:16:13.766Z,20.13
2023-05-22T17:18:41.512Z,19.98
2023-05-22T17:21:10.496Z,20.70
2023-05-22T17:23:38.855Z,19.52
2023-05-22T17:26:06.818Z,22.05
2023-05-22T17:28:34.469Z,20.10
2023-05-22T17:31:02.107Z,20.60
2023-05-22T17:33:29.751Z,18.88
2023-05-22T17:35:57.568Z,20.02
2023-05-22T17:38:26.707Z,19.52
2023-05-22T17:40:54.461Z,20.08
2023-05-22T17:43:22.085Z,19.48
2023-05-22T17:45:50.792Z,19.48
2023-05-22T17:48:23.384Z,19.00
2023-05-22T17:50:52.081Z,20.00
2023-05-22T17:53:20.609Z,19.02
2023-05-22T17:55:52.217Z,19.00
2023-05-22T18:00:48.991Z,20.63
2023-05-22T18:03:20.228Z,19.80
2023-05-22T18:05:48.638Z,18.27
2023-05-22T18:08:16.364Z,19.08
2023-05-22T18:10:44.139Z,20.40
2023-05-22T18:13:13.124Z,19.00
2023-05-22T18:15:40.855Z,19.67
2023-05-22T18:18:10.006Z,20.13
2023-05-22T18:20:39.311Z,19.67
2023-05-22T18:23:07.234Z,19.55
2023-05-22T18:25:34.921Z,19.40
2023-05-22T18:28:02.565Z,19.77
2023-05-22T18:30:32.270Z,19.15
2023-05-22T18:32:59.959Z,18.48
2023-05-22T18:35:27.616Z,19.70
2023-05-22T18:37:55.362Z,20.40
2023-05-22T18:40:23.049Z,20.17
2023-05-22T18:42:50.691Z,19.63
2023-05-22T18:45:18.348Z,20.23
2023-05-22T18:47:47.450Z,19.23
2023-05-22T18:50:15.195Z,20.13
2023-05-22T18:52:42.820Z,19.80
2023-05-22T18:55:11.225Z,20.13
2023-05-22T18:57:38.941Z,18.13
2023-05-22T19:00:08.244Z,18.88
2023-05-22T19:02:35.999Z,18.75
2023-05-22T19:05:05.617Z,19.88
2023-05-22T19:07:33.312Z,21.30
2023-05-22T19:10:00.931Z,21.63
2023-05-22T19:12:31.664Z,21.05
2023-05-22T19:15:00.912Z,23.17
2023-05-22T19:17:28.579Z,20.92
2023-05-22T19:19:56.164Z,21.02
2023-05-22T19:22:25.189Z,20.92
2023-05-22T19:24:52.814Z,20.77
2023-05-22T19:27:20.466Z,21.25
2023-05-22T19:29:48.059Z,20.98
2023-05-22T19:32:15.806Z,19.92
2023-05-22T19:34:43.392Z,20.02
2023-05-22T19:37:11.007Z,20.77
2023-05-22T19:39:40.368Z,20.52
2023-05-22T19:42:10.640Z,22.25
2023-05-22T19:44:38.261Z,21.58
2023-05-22T19:47:06.288Z,21.98
2023-05-22T19:49:36.783Z,21.77
2023-05-22T19:52:04.840Z,21.80
2023-05-22T19:54:32.425Z,21.90
2023-05-22T19:57:01.381Z,21.58
2023-05-22T19:59:28.987Z,22.70
2023-05-22T20:01:56.781Z,22.50
2023-05-22T20:04:24.378Z,20.95
2023-05-22T20:06:51.990Z,21.88
2023-05-22T20:09:19.571Z,21.02
2023-05-22T20:11:47.174Z,21.60
2023-05-22T20:14:16.306Z,22.15
2023-05-22T20:16:44.020Z,23.33
2023-05-22T20:19:14.244Z,21.17
2023-05-22T20:21:42.044Z,21.88
2023-05-22T20:24:12.063Z,24.08
2023-05-22T20:26:39.734Z,22.77
2023-05-22T20:29:07.384Z,22.80
2023-05-22T20:31:36.417Z,22.30
2023-05-22T20:34:04.700Z,20.60
2023-05-22T20:36:32.653Z,22.25
2023-05-22T20:39:00.270Z,20.88
2023-05-22T20:41:27.965Z,21.23
2023-05-22T20:43:55.598Z,22.20
2023-05-22T20:46:24.230Z,22.42
2023-05-22T20:48:53.298Z,22.30
2023-05-22T20:51:21.476Z,20.40
2023-05-22T20:53:49.403Z,23.58
2023-05-22T20:56:17.064Z,23.00
2023-05-22T20:58:44.692Z,22.92
2023-05-22T21:01:12.432Z,22.15
2023-05-22T21:03:40.103Z,24.10
2023-05-22T21:06:09.236Z,24.23
2023-05-22T21:08:36.853Z,23.98
2023-05-22T21:11:06.794Z,24.00
2023-05-22T21:13:34.403Z,22.13
2023-05-22T21:16:02.075Z,21.63
2023-05-22T21:18:29.704Z,23.08
2023-05-22T21:20:57.348Z,22.77
2023-05-22T21:23:26.368Z,21.38
2023-05-22T21:25:53.987Z,21.70
2023-05-22T21:28:21.604Z,21.48
2023-05-22T21:30:49.229Z,22.63
2023-05-22T21:33:16.830Z,22.25
2023-05-22T21:35:44.445Z,22.77
2023-05-22T21:38:12.018Z,21.80
2023-05-22T21:40:42.613Z,22.08
2023-05-22T21:43:10.386Z,22.73
2023-05-22T21:45:38.884Z,23.40
2023-05-22T21:48:06.642Z,21.75
2023-05-22T21:50:34.328Z,21.95
2023-05-22T21:53:01.949Z,21.42
2023-05-22T21:55:29.553Z,22.95
2023-05-22T21:57:58.464Z,22.05
2023-05-22T22:00:26.067Z,21.55
2023-05-22T22:02:53.737Z,22.35
2023-05-22T22:05:21.624Z,23.05
2023-05-22T22:07:49.195Z,22.83
2023-05-22T22:10:17.080Z,22.05
2023-05-22T22:12:44.641Z,20.98
2023-05-22T22:15:14.288Z,20.50
2023-05-22T22:17:41.895Z,21.70
2023-05-22T22:20:10.425Z,22.27
2023-05-22T22:22:38.043Z,22.25
2023-05-22T22:25:06.542Z,23.33
2023-05-22T22:27:34.156Z,22.25
2023-05-22T22:30:02.015Z,21.95
2023-05-22T22:32:30.982Z,24.02
2023-05-22T22:34:58.612Z,23.13
2023-05-22T22:37:26.205Z,21.90
2023-05-22T22:39:53.798Z,22.10
2023-05-22T22:42:21.375Z,21.73
2023-05-22T22:44:48.977Z,22.20
2023-05-22T22:47:17.163Z,21.85
2023-05-22T22:49:46.195Z,23.35
2023-05-22T22:52:13.777Z,24.35
2023-05-22T22:54:44.436Z,23.10
2023-05-22T22:57:12.265Z,21.13
2023-05-22T22:59:39.873Z,23.50
2023-05-22T23:02:08.178Z,21.73
2023-05-22T23:04:36.471Z,22.65
2023-05-22T23:07:06.135Z,23.63
2023-05-22T23:09:33.763Z,22.95
2023-05-22T23:12:01.368Z,22.60
2023-05-22T23:14:29.010Z,21.63
2023-05-22T23:16:56.618Z,22.30
2023-05-22T23:19:24.351Z,22.50
2023-05-22T23:21:52.015Z,22.65
2023-05-22T23:24:21.042Z,21.95
2023-05-22T23:26:48.697Z,21.88
2023-05-22T23:29:16.369Z,22.20
2023-05-22T23:31:44.063Z,22.92
2023-05-22T23:34:11.787Z,21.33
2023-05-22T23:36:39.494Z,21.77
2023-05-22T23:39:07.158Z,21.13
2023-05-22T23:41:36.469Z,21.70
2023-05-22T23:44:05.289Z,20.67
2023-05-22T23:46:33.626Z,19.92
2023-05-22T23:49:01.256Z,21.50
2023-05-22T23:51:28.894Z,20.92
2023-05-22T23:53:56.495Z,21.10
2023-05-22T23:56:24.139Z,20.75
2023-05-22T23:58:53.161Z,20.63
